createdAt,value
2023-02-22T00:00:29.544Z,73.68
2023-02-22T00:01:43.189Z,74.15
2023-02-22T00:02:46.028Z,74.41
2023-02-22T00:03:52.074Z,74.45
2023-02-22T00:04:54.267Z,74.51
2023-02-22T00:05:58.790Z,73.67
2023-02-22T00:07:01.569Z,73.93
2023-02-22T00:08:03.393Z,74.14
2023-02-22T00:09:05.279Z,74.29
2023-02-22T00:10:13.847Z,74.78
2023-02-22T00:11:17.553Z,74.40
2023-02-22T00:12:20.860Z,74.54
2023-02-22T00:13:25.582Z,74.80
2023-02-22T00:14:27.773Z,73.64
2023-02-22T00:15:29.754Z,73.42
2023-02-22T00:16:31.977Z,72.95
2023-02-22T00:17:34.382Z,73.81
2023-02-22T00:18:36.189Z,73.53
2023-02-22T00:19:38.775Z,73.80
2023-02-22T00:20:41.151Z,73.78
2023-02-22T00:21:45.111Z,73.75
2023-02-22T00:22:47.978Z,74.22
2023-02-22T00:23:50.682Z,74.08
2023-02-22T00:24:52.511Z,73.50
2023-02-22T00:25:54.859Z,73.65
2023-02-22T00:26:56.737Z,73.42
2023-02-22T00:27:58.546Z,73.17
2023-02-22T00:29:00.357Z,73.16
2023-02-22T00:30:02.790Z,73.58
2023-02-22T00:31:06.907Z,73.38
2023-02-22T00:32:08.850Z,73.38
2023-02-22T00:33:12.156Z,73.46
2023-02-22T00:34:14.624Z,73.60
2023-02-22T00:35:17.946Z,74.29
2023-02-22T00:36:19.782Z,73.63
2023-02-22T00:37:22.375Z,73.59
2023-02-22T00:38:24.368Z,74.00
2023-02-22T00:39:26.556Z,73.68
2023-02-22T00:40:32.968Z,74.27
2023-02-22T00:41:34.923Z,74.63
2023-02-22T00:42:37.201Z,74.34
2023-02-22T00:43:39.159Z,74.57
2023-02-22T00:44:40.988Z,73.96
2023-02-22T00:45:43.037Z,74.68
2023-02-22T00:46:45.029Z,73.85
2023-02-22T00:47:47.174Z,74.11
2023-02-22T00:48:48.985Z,74.44
2023-02-22T00:49:50.807Z,74.45
2023-02-22T00:50:55.893Z,74.16
2023-02-22T00:51:57.768Z,74.89
2023-02-22T00:53:00.743Z,74.62
2023-02-22T00:54:02.641Z,73.70
2023-02-22T00:55:06.345Z,73.76
2023-02-22T00:56:08.178Z,73.65
2023-02-22T00:57:10.023Z,73.79
2023-02-22T00:58:13.194Z,74.62
2023-02-22T00:59:15.075Z,74.96
2023-02-22T01:00:27.330Z,75.00
2023-02-22T01:01:29.231Z,75.88
2023-02-22T01:02:31.144Z,75.65
2023-02-22T01:03:33.103Z,75.31
2023-02-22T01:04:35.237Z,75.23
2023-02-22T01:05:38.578Z,74.98
2023-02-22T01:06:40.653Z,75.00
2023-02-22T01:07:42.785Z,75.27
2023-02-22T01:08:46.008Z,74.95
2023-02-22T01:09:47.858Z,74.75
2023-02-22T01:10:49.940Z,75.12
2023-02-22T01:11:58.497Z,74.99
2023-02-22T01:13:01.012Z,74.43
2023-02-22T01:14:02.996Z,74.69
2023-02-22T01:15:06.123Z,75.17
2023-02-22T01:16:11.259Z,75.68
2023-02-22T01:17:13.129Z,75.87
2023-02-22T01:18:17.509Z,75.93
2023-02-22T01:19:19.380Z,75.03
2023-02-22T01:20:26.342Z,74.90
2023-02-22T01:21:28.376Z,75.27
2023-02-22T01:22:30.253Z,75.66
2023-02-22T01:23:32.191Z,74.88
2023-02-22T01:24:34.060Z,75.58
2023-02-22T01:25:36.188Z,75.32
2023-02-22T01:26:38.295Z,75.52
2023-02-22T01:27:40.204Z,75.60
2023-02-22T01:28:42.063Z,75.94
2023-02-22T01:29:44.335Z,76.09
2023-02-22T01:30:46.413Z,75.57
2023-02-22T01:31:55.882Z,75.45
2023-02-22T01:32:58.323Z,75.11
2023-02-22T01:34:00.154Z,74.83
2023-02-22T01:35:05.296Z,74.89
2023-02-22T01:36:11.664Z,75.06
2023-02-22T01:37:13.521Z,75.43
2023-02-22T01:38:15.396Z,75.38
2023-02-22T01:39:18.136Z,75.24
2023-02-22T01:40:21.975Z,74.78
2023-02-22T01:41:23.893Z,75.42
2023-02-22T01:42:26.930Z,75.70
2023-02-22T01:43:32.676Z,75.67
2023-02-22T01:44:38.444Z,75.76
2023-02-22T01:45:45.636Z,76.20
2023-02-22T01:46:47.638Z,76.24
2023-02-22T01:47:49.496Z,76.23
2023-02-22T01:48:54.370Z,75.81
2023-02-22T01:49:57.207Z,75.80
2023-02-22T01:51:37.869Z,75.07
2023-02-22T01:52:39.821Z,74.91
2023-02-22T01:54:06.702Z,74.61
2023-02-22T01:55:08.530Z,75.41
2023-02-22T01:56:10.931Z,74.95
2023-02-22T01:57:16.419Z,74.97
2023-02-22T01:58:19.076Z,74.99
2023-02-22T01:59:22.285Z,75.02
2023-02-22T02:00:27.806Z,75.48
2023-02-22T02:01:30.284Z,75.00
2023-02-22T02:02:32.096Z,74.69
2023-02-22T02:03:35.945Z,74.76
2023-02-22T02:04:38.099Z,74.65
2023-02-22T02:05:40.048Z,74.77
2023-02-22T02:06:42.935Z,74.16
2023-02-22T02:07:46.859Z,74.76
2023-02-22T02:08:53.361Z,73.94
2023-02-22T02:09:59.675Z,74.17
2023-02-22T02:11:02.272Z,74.04
2023-02-22T02:12:06.797Z,74.74
2023-02-22T02:13:08.865Z,75.16
2023-02-22T02:14:11.672Z,74.73
2023-02-22T02:15:29.874Z,74.51
2023-02-22T02:16:43.264Z,74.63
2023-02-22T02:17:45.431Z,74.49
2023-02-22T02:18:47.273Z,74.47
2023-02-22T02:19:59.712Z,74.50
2023-02-22T02:21:27.592Z,74.42
2023-02-22T02:22:52.490Z,74.35
2023-02-22T02:24:09.375Z,74.40
2023-02-22T02:25:18.435Z,74.57
2023-02-22T02:26:32.765Z,74.36
2023-02-22T02:27:46.906Z,74.16
2023-02-22T02:29:07.335Z,73.95
2023-02-22T02:30:09.196Z,73.86
2023-02-22T02:31:22.164Z,73.78
2023-02-22T02:32:30.765Z,73.99
2023-02-22T02:33:35.099Z,74.41
2023-02-22T02:34:39.955Z,73.87
2023-02-22T02:35:44.751Z,74.03
2023-02-22T02:36:55.014Z,73.99
2023-02-22T02:38:02.643Z,74.09
2023-02-22T02:39:11.660Z,74.67
2023-02-22T02:40:22.877Z,75.25
2023-02-22T02:41:27.390Z,76.08
2023-02-22T02:42:33.608Z,75.90
2023-02-22T02:43:45.373Z,75.79
2023-02-22T02:44:49.725Z,75.59
2023-02-22T02:46:13.505Z,75.64
2023-02-22T02:47:19.543Z,75.45
2023-02-22T02:48:24.001Z,75.76
2023-02-22T02:49:29.530Z,75.84
2023-02-22T02:50:37.200Z,75.59
2023-02-22T02:51:42.281Z,74.90
2023-02-22T02:52:45.807Z,74.78
2023-02-22T02:53:48.902Z,74.78
2023-02-22T02:54:51.793Z,75.22
2023-02-22T02:55:53.635Z,75.53
2023-02-22T02:56:56.597Z,75.34
2023-02-22T02:57:59.772Z,75.77
2023-02-22T02:59:01.667Z,75.42
2023-02-22T03:00:22.572Z,76.58
2023-02-22T03:01:50.630Z,77.09
2023-02-22T03:02:59.885Z,77.54
2023-02-22T03:04:12.753Z,77.96
2023-02-22T03:05:36.780Z,78.48
2023-02-22T03:06:56.020Z,78.36
2023-02-22T03:07:57.872Z,77.81
2023-02-22T03:09:14.321Z,77.54
2023-02-22T03:10:16.195Z,77.29
2023-02-22T03:11:22.845Z,77.22
2023-02-22T03:12:37.330Z,76.57
2023-02-22T03:13:55.984Z,76.73
2023-02-22T03:15:01.626Z,76.84
2023-02-22T03:16:12.522Z,76.38
2023-02-22T03:17:22.508Z,76.06
2023-02-22T03:18:43.217Z,76.36
2023-02-22T03:19:52.046Z,76.02
2023-02-22T03:20:59.788Z,76.00
2023-02-22T03:22:01.624Z,75.50
2023-02-22T03:23:35.806Z,76.00
2023-02-22T03:24:53.481Z,75.52
2023-02-22T03:25:58.917Z,75.80
2023-02-22T03:27:09.644Z,76.46
2023-02-22T03:28:13.863Z,76.51
2023-02-22T03:29:18.479Z,76.01
2023-02-22T03:30:26.923Z,75.82
2023-02-22T03:31:31.678Z,75.87
2023-02-22T03:32:36.683Z,75.73
2023-02-22T03:33:38.515Z,75.58
2023-02-22T03:34:46.193Z,75.99
2023-02-22T03:35:57.188Z,76.00
2023-02-22T03:37:14.107Z,75.62
2023-02-22T03:38:17.583Z,75.73
2023-02-22T03:39:20.706Z,75.73
2023-02-22T03:40:34.479Z,76.04
2023-02-22T03:41:40.124Z,75.94
2023-02-22T03:42:50.332Z,76.52
2023-02-22T03:44:12.411Z,76.40
2023-02-22T03:45:15.998Z,76.40
2023-02-22T03:46:19.651Z,76.31
2023-02-22T03:47:23.588Z,76.09
2023-02-22T03:48:39.965Z,75.76
2023-02-22T03:49:56.655Z,75.58
2023-02-22T03:50:58.763Z,75.59
2023-02-22T03:52:01.546Z,75.58
2023-02-22T03:53:03.968Z,75.70
2023-02-22T03:54:06.665Z,75.52
2023-02-22T03:55:11.800Z,75.49
2023-02-22T03:56:36.260Z,75.32
2023-02-22T03:57:39.754Z,75.26
2023-02-22T03:58:44.488Z,75.01
2023-02-22T03:59:46.548Z,75.00
2023-02-22T04:00:53.469Z,74.90
2023-02-22T04:01:56.193Z,75.21
2023-02-22T04:02:59.778Z,75.47
2023-02-22T04:04:01.692Z,75.11
2023-02-22T04:05:03.743Z,75.52
2023-02-22T04:06:05.725Z,75.44
2023-02-22T04:07:07.651Z,75.58
2023-02-22T04:08:09.488Z,75.49
2023-02-22T04:09:11.440Z,75.61
2023-02-22T04:10:14.343Z,75.35
2023-02-22T04:11:16.369Z,75.32
2023-02-22T04:12:18.615Z,75.62
2023-02-22T04:13:20.520Z,75.18
2023-02-22T04:14:23.850Z,75.28
2023-02-22T04:15:26.101Z,75.46
2023-02-22T04:16:28.261Z,75.50
2023-02-22T04:17:30.106Z,75.30
2023-02-22T04:18:31.962Z,75.12
2023-02-22T04:19:33.821Z,75.17
2023-02-22T04:20:35.658Z,75.29
2023-02-22T04:21:37.627Z,76.12
2023-02-22T04:22:40.168Z,76.82
2023-02-22T04:23:42.018Z,77.11
2023-02-22T04:24:43.871Z,77.07
2023-02-22T04:25:45.708Z,77.38
2023-02-22T04:26:47.636Z,77.40
2023-02-22T04:27:49.937Z,77.54
2023-02-22T04:28:51.883Z,77.50
2023-02-22T04:29:53.804Z,77.41
2023-02-22T04:30:55.736Z,77.12
2023-02-22T04:31:57.757Z,77.14
2023-02-22T04:32:59.741Z,76.86
2023-02-22T04:34:02.956Z,76.85
2023-02-22T04:35:05.306Z,76.66
2023-02-22T04:36:07.899Z,76.48
2023-02-22T04:37:10.804Z,76.63
2023-02-22T04:38:12.656Z,77.20
2023-02-22T04:39:14.644Z,77.18
2023-02-22T04:40:17.487Z,77.82
2023-02-22T04:41:19.550Z,78.18
2023-02-22T04:42:21.550Z,78.65
2023-02-22T04:43:23.343Z,78.95
2023-02-22T04:44:25.234Z,78.57
2023-02-22T04:45:27.187Z,78.38
2023-02-22T04:46:29.234Z,78.12
2023-02-22T04:47:31.217Z,77.86
2023-02-22T04:48:33.117Z,77.80
2023-02-22T04:49:36.009Z,77.70
2023-02-22T04:50:41.025Z,77.11
2023-02-22T04:51:43.000Z,77.57
2023-02-22T04:52:44.983Z,77.08
2023-02-22T04:53:47.006Z,77.42
2023-02-22T04:54:49.176Z,77.36
2023-02-22T04:55:51.084Z,77.64
2023-02-22T04:56:52.980Z,77.72
2023-02-22T04:57:55.354Z,77.31
2023-02-22T04:58:57.210Z,77.00
2023-02-22T04:59:59.179Z,77.34
2023-02-22T05:01:01.320Z,77.26
2023-02-22T05:02:03.329Z,77.08
2023-02-22T05:03:05.269Z,76.84
2023-02-22T05:04:07.661Z,76.55
2023-02-22T05:05:09.492Z,77.13
2023-02-22T05:06:12.681Z,77.21
2023-02-22T05:07:14.659Z,77.29
2023-02-22T05:08:16.482Z,77.26
2023-02-22T05:09:18.328Z,76.98
2023-02-22T05:10:20.303Z,77.01
2023-02-22T05:11:22.790Z,76.96
2023-02-22T05:12:27.212Z,76.76
2023-02-22T05:13:29.079Z,76.70
2023-02-22T05:14:30.918Z,76.59
2023-02-22T05:15:32.928Z,76.81
2023-02-22T05:16:35.005Z,76.38
2023-02-22T05:17:37.092Z,76.44
2023-02-22T05:18:38.845Z,76.30
2023-02-22T05:19:42.481Z,76.37
2023-02-22T05:20:44.378Z,76.53
2023-02-22T05:21:46.389Z,76.13
2023-02-22T05:22:48.263Z,76.45
2023-02-22T05:23:50.045Z,77.10
2023-02-22T05:24:54.728Z,77.18
2023-02-22T05:25:56.622Z,77.50
2023-02-22T05:26:58.700Z,77.02
2023-02-22T05:28:01.955Z,77.10
2023-02-22T05:29:03.890Z,77.10
2023-02-22T05:30:06.121Z,77.13
2023-02-22T05:31:08.911Z,77.31
2023-02-22T05:32:12.555Z,77.22
2023-02-22T05:33:14.470Z,77.25
2023-02-22T05:34:16.466Z,77.19
2023-02-22T05:35:18.924Z,77.25
2023-02-22T05:36:20.735Z,77.49
2023-02-22T05:37:22.689Z,77.40
2023-02-22T05:38:24.638Z,77.87
2023-02-22T05:39:26.595Z,77.29
2023-02-22T05:40:29.075Z,77.43
2023-02-22T05:41:30.940Z,77.93
2023-02-22T05:42:32.763Z,77.36
2023-02-22T05:43:34.678Z,77.08
2023-02-22T05:44:36.515Z,77.28
2023-02-22T05:45:38.529Z,76.87
2023-02-22T05:46:40.431Z,77.10
2023-02-22T05:47:42.455Z,77.37
2023-02-22T05:48:44.348Z,77.10
2023-02-22T05:49:46.184Z,77.56
2023-02-22T05:50:50.113Z,77.92
2023-02-22T05:51:52.025Z,77.96
2023-02-22T05:52:54.343Z,77.69
2023-02-22T05:53:56.296Z,78.44
2023-02-22T05:54:58.190Z,78.59
2023-02-22T05:56:00.431Z,78.96
2023-02-22T05:57:02.803Z,78.86
2023-02-22T05:58:06.177Z,79.29
2023-02-22T05:59:08.092Z,79.81
2023-02-22T06:00:10.770Z,79.63
2023-02-22T06:01:12.867Z,78.99
2023-02-22T06:02:14.811Z,78.67
2023-02-22T06:03:16.698Z,79.05
2023-02-22T06:04:18.536Z,79.28
2023-02-22T06:05:20.533Z,79.36
2023-02-22T06:06:22.677Z,79.46
2023-02-22T06:07:24.563Z,78.84
2023-02-22T06:08:26.482Z,78.56
2023-02-22T06:09:28.342Z,78.21
2023-02-22T06:10:30.284Z,78.45
2023-02-22T06:11:32.233Z,78.09
2023-02-22T06:12:34.103Z,77.78
2023-02-22T06:13:36.480Z,78.07
2023-02-22T06:14:38.473Z,77.59
2023-02-22T06:15:40.330Z,77.82
2023-02-22T06:16:42.139Z,77.27
2023-02-22T06:17:44.139Z,77.00
2023-02-22T06:18:46.072Z,77.08
2023-02-22T06:19:47.863Z,76.67
2023-02-22T06:20:49.756Z,77.13
2023-02-22T06:21:52.368Z,77.64
2023-02-22T06:22:55.412Z,77.86
2023-02-22T06:23:57.372Z,78.21
2023-02-22T06:24:59.268Z,78.68
2023-02-22T06:26:01.071Z,78.62
2023-02-22T06:27:02.895Z,78.38
2023-02-22T06:28:04.915Z,78.44
2023-02-22T06:29:06.905Z,78.51
2023-02-22T06:30:11.246Z,78.17
2023-02-22T06:31:14.325Z,78.43
2023-02-22T06:32:17.285Z,78.35
2023-02-22T06:33:19.200Z,78.44
2023-02-22T06:34:22.266Z,78.63
2023-02-22T06:35:24.067Z,78.96
2023-02-22T06:36:25.938Z,79.38
2023-02-22T06:37:27.793Z,78.78
2023-02-22T06:38:29.759Z,79.22
2023-02-22T06:39:31.626Z,79.22
2023-02-22T06:40:33.531Z,78.97
2023-02-22T06:41:37.848Z,78.71
2023-02-22T06:42:40.038Z,79.76
2023-02-22T06:43:41.995Z,80.16
2023-02-22T06:44:43.855Z,80.05
2023-02-22T06:45:45.739Z,80.39
2023-02-22T06:46:49.616Z,80.14
2023-02-22T06:47:51.488Z,80.01
2023-02-22T06:48:53.444Z,80.08
2023-02-22T06:49:55.793Z,80.21
2023-02-22T06:50:58.325Z,80.37
2023-02-22T06:52:00.313Z,80.29
2023-02-22T06:53:02.185Z,80.32
2023-02-22T06:54:04.983Z,79.64
2023-02-22T06:55:06.937Z,79.66
2023-02-22T06:56:08.806Z,79.64
2023-02-22T06:57:10.721Z,79.29
2023-02-22T06:58:12.590Z,79.89
2023-02-22T06:59:14.515Z,79.75
2023-02-22T07:00:18.045Z,80.38
2023-02-22T07:01:20.167Z,80.84
2023-02-22T07:02:22.338Z,80.67
2023-02-22T07:03:24.314Z,80.60
2023-02-22T07:04:26.336Z,80.06
2023-02-22T07:05:28.510Z,80.15
2023-02-22T07:06:30.366Z,80.12
2023-02-22T07:07:32.287Z,80.24
2023-02-22T07:08:34.241Z,80.80
2023-02-22T07:09:36.186Z,80.81
2023-02-22T07:10:38.628Z,80.53
2023-02-22T07:11:40.694Z,80.29
2023-02-22T07:12:42.552Z,80.56
2023-02-22T07:13:44.502Z,80.62
2023-02-22T07:14:46.431Z,81.10
2023-02-22T07:15:48.413Z,80.95
2023-02-22T07:16:50.233Z,81.16
2023-02-22T07:17:52.668Z,81.30
2023-02-22T07:18:54.538Z,81.98
2023-02-22T07:19:56.447Z,81.65
2023-02-22T07:20:58.967Z,81.96
2023-02-22T07:22:00.912Z,81.89
2023-02-22T07:23:02.848Z,81.82
2023-02-22T07:24:05.561Z,81.55
2023-02-22T07:25:10.222Z,81.20
2023-02-22T07:26:12.558Z,81.04
2023-02-22T07:27:14.434Z,80.37
2023-02-22T07:28:16.369Z,80.83
2023-02-22T07:29:18.219Z,81.49
2023-02-22T07:30:31.311Z,81.03
2023-02-22T07:31:38.821Z,80.72
2023-02-22T07:32:42.560Z,81.25
2023-02-22T07:33:46.157Z,81.78
2023-02-22T07:34:48.134Z,81.37
2023-02-22T07:35:50.730Z,81.24
2023-02-22T07:36:52.554Z,81.04
2023-02-22T07:37:56.084Z,80.81
2023-02-22T07:38:58.270Z,80.54
2023-02-22T07:40:00.167Z,80.27
2023-02-22T07:41:02.113Z,80.15
2023-02-22T07:42:04.255Z,80.55
2023-02-22T07:43:16.084Z,80.26
2023-02-22T07:44:18.073Z,80.61
2023-02-22T07:45:20.425Z,80.63
2023-02-22T07:46:22.275Z,80.14
2023-02-22T07:47:24.104Z,80.59
2023-02-22T07:48:27.475Z,81.50
2023-02-22T07:49:29.466Z,81.85
2023-02-22T07:50:32.514Z,82.19
2023-02-22T07:51:34.412Z,82.31
2023-02-22T07:52:37.225Z,82.51
2023-02-22T07:53:39.056Z,82.10
2023-02-22T07:54:41.069Z,81.69
2023-02-22T07:55:43.879Z,81.71
2023-02-22T07:56:48.994Z,81.49
2023-02-22T07:57:51.579Z,81.61
2023-02-22T07:58:53.496Z,81.36
2023-02-22T07:59:55.905Z,81.51
2023-02-22T08:00:58.149Z,81.55
2023-02-22T08:02:00.104Z,81.59
2023-02-22T08:03:02.737Z,81.46
2023-02-22T08:04:04.727Z,81.75
2023-02-22T08:05:07.468Z,82.39
2023-02-22T08:06:10.006Z,81.67
2023-02-22T08:07:11.872Z,81.92
2023-02-22T08:08:17.758Z,82.13
2023-02-22T08:09:21.318Z,82.77
2023-02-22T08:10:24.304Z,82.56
2023-02-22T08:11:26.616Z,82.43
2023-02-22T08:12:28.501Z,82.32
2023-02-22T08:13:30.301Z,82.01
2023-02-22T08:14:32.304Z,82.05
2023-02-22T08:15:35.505Z,81.83
2023-02-22T08:16:37.494Z,81.60
2023-02-22T08:17:39.273Z,81.79
2023-02-22T08:18:41.363Z,81.73
2023-02-22T08:19:43.218Z,80.80
2023-02-22T08:20:46.266Z,81.30
2023-02-22T08:21:48.121Z,82.26
2023-02-22T08:22:50.379Z,82.05
2023-02-22T08:23:54.558Z,82.20
2023-02-22T08:24:56.552Z,82.62
2023-02-22T08:26:04.375Z,81.06
2023-02-22T08:27:06.601Z,80.36
2023-02-22T08:28:10.229Z,80.76
2023-02-22T08:29:12.121Z,79.31
2023-02-22T08:30:15.388Z,79.46
2023-02-22T08:31:17.525Z,79.20
2023-02-22T08:32:19.714Z,78.78
2023-02-22T08:33:21.949Z,79.20
2023-02-22T08:34:25.104Z,78.26
2023-02-22T08:35:27.876Z,78.39
2023-02-22T08:36:30.765Z,78.51
2023-02-22T08:37:32.562Z,79.86
2023-02-22T08:38:35.305Z,80.04
2023-02-22T08:39:37.520Z,79.44
2023-02-22T08:40:39.762Z,79.53
2023-02-22T08:41:41.625Z,81.77
2023-02-22T08:42:43.927Z,80.92
2023-02-22T08:43:45.899Z,80.31
2023-02-22T08:44:47.757Z,79.47
2023-02-22T08:45:50.412Z,78.88
2023-02-22T08:46:52.230Z,79.21
2023-02-22T08:47:54.383Z,79.82
2023-02-22T08:48:56.325Z,80.83
2023-02-22T08:49:58.152Z,80.55
2023-02-22T08:50:59.976Z,80.09
2023-02-22T08:52:01.823Z,79.32
2023-02-22T08:53:05.262Z,79.68
2023-02-22T08:54:07.638Z,80.31
2023-02-22T08:55:09.459Z,79.28
2023-02-22T08:56:11.496Z,78.82
2023-02-22T08:57:13.422Z,78.80
2023-02-22T08:58:15.306Z,78.38
2023-02-22T08:59:17.649Z,77.59
2023-02-22T09:00:20.175Z,76.63
2023-02-22T09:01:32.686Z,77.36
2023-02-22T09:02:35.062Z,76.54
2023-02-22T09:03:36.968Z,75.98
2023-02-22T09:04:38.825Z,75.87
2023-02-22T09:05:41.376Z,75.76
2023-02-22T09:06:44.303Z,77.80
2023-02-22T09:07:46.337Z,76.86
2023-02-22T09:08:48.362Z,75.59
2023-02-22T09:09:50.215Z,76.27
2023-02-22T09:10:52.111Z,75.46
2023-02-22T09:11:53.962Z,76.25
2023-02-22T09:12:56.053Z,75.33
2023-02-22T09:13:57.892Z,75.41
2023-02-22T09:14:59.676Z,74.63
2023-02-22T09:16:01.556Z,74.58
2023-02-22T09:17:05.660Z,74.91
2023-02-22T09:18:11.522Z,75.12
2023-02-22T09:19:13.346Z,73.33
2023-02-22T09:20:18.105Z,73.28
2023-02-22T09:21:19.986Z,70.80
2023-02-22T09:22:21.849Z,71.34
2023-02-22T09:23:24.240Z,71.58
2023-02-22T09:24:26.375Z,72.21
2023-02-22T09:25:28.229Z,71.01
2023-02-22T09:26:30.080Z,70.75
2023-02-22T09:27:32.047Z,69.85
2023-02-22T09:28:33.891Z,71.39
2023-02-22T09:29:35.970Z,70.14
2023-02-22T09:30:38.112Z,69.88
2023-02-22T09:31:41.050Z,69.45
2023-02-22T09:32:43.173Z,69.39
2023-02-22T09:33:47.354Z,69.06
2023-02-22T09:34:49.412Z,69.46
2023-02-22T09:35:51.343Z,68.35
2023-02-22T09:36:53.206Z,67.07
2023-02-22T09:37:59.288Z,67.26
2023-02-22T09:39:01.277Z,67.88
2023-02-22T09:40:03.753Z,68.11
2023-02-22T09:41:20.001Z,67.33
2023-02-22T09:42:33.937Z,66.38
2023-02-22T09:43:48.006Z,66.87
2023-02-22T09:44:55.385Z,67.79
2023-02-22T09:46:13.756Z,66.50
2023-02-22T09:47:18.574Z,65.51
2023-02-22T09:48:22.298Z,66.20
2023-02-22T09:49:28.256Z,65.12
2023-02-22T09:50:35.871Z,64.83
2023-02-22T09:51:43.901Z,65.64
2023-02-22T09:52:49.120Z,64.07
2023-02-22T09:53:52.693Z,64.63
2023-02-22T09:55:08.712Z,65.15
2023-02-22T09:56:12.414Z,63.70
2023-02-22T09:57:28.131Z,63.01
2023-02-22T09:58:33.980Z,63.64
2023-02-22T09:59:39.721Z,63.76
2023-02-22T10:00:44.526Z,62.71
2023-02-22T10:01:48.890Z,62.22
2023-02-22T10:03:09.395Z,61.66
2023-02-22T10:04:11.130Z,62.09
2023-02-22T10:05:34.051Z,62.06
2023-02-22T10:06:37.359Z,60.48
2023-02-22T10:07:47.056Z,60.07
2023-02-22T10:08:50.459Z,60.53
2023-02-22T10:09:56.842Z,60.60
2023-02-22T10:11:18.868Z,60.78
2023-02-22T10:12:20.787Z,58.81
2023-02-22T10:13:42.403Z,59.76
2023-02-22T10:15:02.700Z,58.53
2023-02-22T10:16:17.007Z,59.49
2023-02-22T10:17:45.428Z,60.25
2023-02-22T10:18:48.247Z,58.45
2023-02-22T10:20:08.594Z,58.07
2023-02-22T10:21:13.621Z,57.13
2023-02-22T10:22:28.303Z,56.63
2023-02-22T10:23:45.541Z,56.52
2023-02-22T10:25:01.614Z,56.88
2023-02-22T10:26:15.263Z,56.70
2023-02-22T10:27:22.666Z,56.18
2023-02-22T10:28:31.234Z,55.72
2023-02-22T10:29:37.793Z,56.46
2023-02-22T10:31:05.858Z,55.39
2023-02-22T10:32:12.550Z,55.17
2023-02-22T10:33:17.579Z,55.29
2023-02-22T10:34:25.053Z,54.26
2023-02-22T10:35:33.342Z,55.92
2023-02-22T10:36:39.416Z,53.38
2023-02-22T10:37:41.332Z,54.00
2023-02-22T10:38:49.000Z,54.69
2023-02-22T10:39:53.225Z,55.43
2023-02-22T10:41:01.252Z,54.72
2023-02-22T10:42:08.526Z,53.82
2023-02-22T10:43:12.074Z,54.00
2023-02-22T10:44:13.913Z,53.28
2023-02-22T10:45:32.995Z,53.41
2023-02-22T10:46:34.979Z,53.61
2023-02-22T10:47:38.008Z,53.80
2023-02-22T10:48:41.886Z,53.51
2023-02-22T10:49:46.592Z,54.31
2023-02-22T10:50:48.862Z,53.79
2023-02-22T10:51:59.948Z,54.28
2023-02-22T10:53:01.857Z,51.47
2023-02-22T10:54:20.287Z,52.85
2023-02-22T10:55:22.597Z,51.52
2023-02-22T10:56:25.716Z,53.09
2023-02-22T10:57:32.799Z,53.71
2023-02-22T10:58:43.842Z,53.18
2023-02-22T10:59:45.708Z,51.90
2023-02-22T11:00:47.637Z,51.07
2023-02-22T11:01:50.254Z,51.28
2023-02-22T11:02:54.234Z,50.61
2023-02-22T11:04:02.221Z,51.45
2023-02-22T11:05:05.122Z,51.54
2023-02-22T11:06:19.849Z,50.31
2023-02-22T11:07:27.708Z,51.15
2023-02-22T11:08:31.334Z,49.19
2023-02-22T11:09:45.506Z,48.01
2023-02-22T11:10:48.527Z,48.08
2023-02-22T11:11:51.802Z,49.03
2023-02-22T11:12:54.003Z,49.80
2023-02-22T11:13:56.722Z,51.04
2023-02-22T11:15:24.588Z,50.13
2023-02-22T11:16:34.952Z,49.07
2023-02-22T11:17:36.863Z,48.14
2023-02-22T11:18:38.913Z,48.92
2023-02-22T11:19:46.571Z,49.63
2023-02-22T11:20:48.465Z,48.76
2023-02-22T11:21:54.524Z,49.06
2023-02-22T11:22:58.621Z,50.34
2023-02-22T11:24:05.130Z,50.21
2023-02-22T11:25:08.204Z,51.34
2023-02-22T11:26:14.994Z,49.81
2023-02-22T11:27:40.205Z,49.03
2023-02-22T11:28:49.736Z,49.80
2023-02-22T11:29:52.048Z,50.27
2023-02-22T11:30:54.051Z,47.67
2023-02-22T11:31:56.514Z,48.53
2023-02-22T11:33:13.729Z,50.17
2023-02-22T11:34:27.369Z,49.50
2023-02-22T11:35:29.175Z,47.77
2023-02-22T11:36:33.190Z,49.30
2023-02-22T11:37:39.283Z,49.45
2023-02-22T11:38:53.549Z,49.73
2023-02-22T11:40:06.272Z,49.38
2023-02-22T11:41:26.664Z,48.50
2023-02-22T11:42:28.774Z,47.54
2023-02-22T11:43:31.582Z,47.11
2023-02-22T11:44:33.465Z,48.79
2023-02-22T11:45:35.599Z,47.84
2023-02-22T11:46:37.797Z,48.42
2023-02-22T11:47:56.635Z,46.56
2023-02-22T11:49:01.063Z,47.47
2023-02-22T11:50:11.131Z,46.99
2023-02-22T11:51:14.492Z,48.51
2023-02-22T11:52:28.604Z,46.67
2023-02-22T11:53:49.062Z,48.05
2023-02-22T11:54:59.926Z,46.41
2023-02-22T11:56:28.453Z,47.34
2023-02-22T11:57:41.807Z,47.26
2023-02-22T11:58:50.003Z,46.55
2023-02-22T12:00:12.634Z,45.32
2023-02-22T12:01:23.814Z,46.61
2023-02-22T12:02:37.468Z,44.68
2023-02-22T12:03:46.633Z,47.24
2023-02-22T12:04:54.493Z,46.16
2023-02-22T12:06:15.590Z,46.95
2023-02-22T12:07:17.543Z,46.80
2023-02-22T12:08:30.166Z,44.43
2023-02-22T12:09:58.604Z,46.54
2023-02-22T12:11:10.500Z,45.10
2023-02-22T12:12:27.523Z,44.47
2023-02-22T12:13:36.966Z,43.46
2023-02-22T12:14:54.960Z,44.68
2023-02-22T12:15:59.908Z,43.75
2023-02-22T12:17:23.712Z,43.47
2023-02-22T12:18:56.677Z,44.89
2023-02-22T12:20:07.252Z,44.79
2023-02-22T12:21:16.925Z,44.22
2023-02-22T12:22:22.939Z,43.06
2023-02-22T12:23:45.096Z,44.14
2023-02-22T12:24:55.334Z,45.11
2023-02-22T12:26:03.672Z,44.86
2023-02-22T12:27:18.076Z,43.71
2023-02-22T12:28:24.982Z,43.56
2023-02-22T12:29:48.515Z,43.08
2023-02-22T12:30:56.410Z,42.50
2023-02-22T12:31:58.323Z,43.05
2023-02-22T12:33:04.763Z,43.23
2023-02-22T12:34:08.322Z,43.22
2023-02-22T12:35:10.229Z,42.24
2023-02-22T12:36:15.632Z,41.72
2023-02-22T12:37:17.570Z,42.17
2023-02-22T12:38:23.665Z,41.31
2023-02-22T12:39:25.665Z,42.57
2023-02-22T12:40:35.966Z,42.52
2023-02-22T12:41:46.193Z,42.26
2023-02-22T12:42:55.905Z,40.24
2023-02-22T12:44:04.772Z,41.37
2023-02-22T12:45:17.144Z,39.78
2023-02-22T12:46:19.367Z,41.03
2023-02-22T12:47:25.012Z,40.87
2023-02-22T12:48:52.072Z,41.57
2023-02-22T12:49:57.020Z,40.96
2023-02-22T12:51:02.950Z,43.17
2023-02-22T12:52:21.736Z,42.22
2023-02-22T12:53:31.530Z,42.40
2023-02-22T12:54:45.638Z,42.68
2023-02-22T12:55:59.348Z,42.09
2023-02-22T12:57:03.504Z,41.96
2023-02-22T12:58:14.730Z,42.94
2023-02-22T12:59:16.521Z,42.53
2023-02-22T13:00:26.608Z,41.61
2023-02-22T13:01:33.067Z,42.94
2023-02-22T13:02:34.904Z,42.78
2023-02-22T13:03:41.053Z,41.83
2023-02-22T13:04:42.949Z,42.85
2023-02-22T13:05:49.383Z,42.67
2023-02-22T13:07:01.131Z,44.27
2023-02-22T13:08:12.014Z,42.94
2023-02-22T13:09:23.610Z,43.52
2023-02-22T13:10:39.749Z,43.90
2023-02-22T13:11:47.745Z,42.67
2023-02-22T13:12:59.228Z,43.41
2023-02-22T13:14:12.681Z,42.70
2023-02-22T13:15:23.362Z,43.57
2023-02-22T13:16:31.525Z,42.70
2023-02-22T13:17:48.692Z,42.14
2023-02-22T13:19:04.449Z,42.25
2023-02-22T13:20:14.758Z,42.09
2023-02-22T13:21:31.622Z,43.09
2023-02-22T13:22:36.520Z,43.58
2023-02-22T13:23:39.259Z,41.98
2023-02-22T13:24:59.919Z,41.71
2023-02-22T13:26:08.745Z,41.69
2023-02-22T13:27:14.983Z,42.57
2023-02-22T13:28:22.076Z,42.40
2023-02-22T13:29:29.008Z,41.88
2023-02-22T13:30:42.210Z,42.60
2023-02-22T13:31:50.643Z,41.87
2023-02-22T13:32:52.650Z,42.20
2023-02-22T13:33:54.404Z,42.82
2023-02-22T13:35:06.351Z,43.36
2023-02-22T13:36:08.208Z,42.66
2023-02-22T13:37:12.988Z,41.33
2023-02-22T13:38:17.602Z,41.56
2023-02-22T13:39:41.269Z,42.82
2023-02-22T13:40:46.193Z,42.51
2023-02-22T13:41:51.925Z,42.55
2023-02-22T13:43:08.985Z,42.43
2023-02-22T13:44:14.122Z,42.80
2023-02-22T13:45:35.350Z,42.07
2023-02-22T13:46:55.980Z,42.63
2023-02-22T13:48:00.842Z,42.47
2023-02-22T13:49:18.768Z,42.92
2023-02-22T13:50:39.059Z,43.20
2023-02-22T13:51:50.860Z,41.09
2023-02-22T13:52:54.826Z,42.66
2023-02-22T13:54:00.404Z,43.09
2023-02-22T13:55:05.352Z,42.71
2023-02-22T13:56:07.428Z,42.63
2023-02-22T13:57:20.482Z,41.60
2023-02-22T13:58:22.438Z,41.44
2023-02-22T13:59:33.787Z,41.51
2023-02-22T14:00:41.295Z,40.64
2023-02-22T14:01:48.186Z,41.61
2023-02-22T14:03:30.256Z,41.76
2023-02-22T14:04:32.123Z,41.31